Time;durP1;ratioP1;P1;durP2;ratioP2;P2;SDS_P1;SDS_P2;PMS_P1;PMS_P2;Temp;Humidity;BMP_temperature;BMP_pressure;BME280_temperature;BME280_humidity;BME280_pressure;Samples;Min_cycle;Max_cycle;Signal;HPM_P1;HPM_P2
2022/09/26 00:01:24;;;;;;;;;;;15.80;65.70;;;;;;5061137;28;19927;-88
2022/09/26 00:03:53;;;;;;;;;;;15.70;65.70;;;;;;5077933;28;19920;-87
2022/09/26 00:06:20;;;;;;;;;;;15.70;65.70;;;;;;5065216;28;20016;-87
2022/09/26 00:08:46;;;;;;;;;;;15.70;65.80;;;;;;5063356;28;19909;-86
2022/09/26 00:11:13;;;;;;;;;;;15.70;65.80;;;;;;5058146;28;19912;-86
2022/09/26 00:13:39;;;;;;;;;;;15.70;65.80;;;;;;5075473;28;19920;-87
2022/09/26 00:16:05;;;;;;;;;;;15.70;65.80;;;;;;5062607;28;20011;-86
2022/09/26 00:18:31;;;;;;;;;;;15.70;65.80;;;;;;5059590;28;19909;-86
2022/09/26 00:21:08;;;;;;;;;;;15.70;65.80;;;;;;5076787;28;19913;-86
2022/09/26 00:23:33;;;;;;;;;;;15.70;65.80;;;;;;5055419;28;19947;-87
2022/09/26 00:25:59;;;;;;;;;;;15.60;66.00;;;;;;5059637;28;20365;-86
2022/09/26 00:28:25;;;;;;;;;;;15.60;65.80;;;;;;5053745;28;19916;-86
2022/09/26 00:30:51;;;;;;;;;;;15.60;65.90;;;;;;5060868;28;19924;-88
2022/09/26 00:33:16;;;;;;;;;;;15.60;65.80;;;;;;5063717;28;19916;-86
2022/09/26 00:35:52;;;;;;;;;;;15.60;65.90;;;;;;5047444;28;20482;-87
2022/09/26 00:38:18;;;;;;;;;;;15.60;65.90;;;;;;5063315;28;20397;-87
2022/09/26 00:40:44;;;;;;;;;;;15.60;65.90;;;;;;5047622;28;19912;-87
2022/09/26 00:43:29;;;;;;;;;;;15.60;65.90;;;;;;5050647;28;19932;-85
2022/09/26 00:45:57;;;;;;;;;;;15.60;65.90;;;;;;5072864;28;19913;-86
2022/09/26 00:48:23;;;;;;;;;;;15.60;65.90;;;;;;5073356;28;19913;-87
2022/09/26 00:50:49;;;;;;;;;;;15.60;65.90;;;;;;5080261;28;19966;-88
2022/09/26 00:53:16;;;;;;;;;;;15.50;65.90;;;;;;5070286;28;19921;-87
2022/09/26 00:55:45;;;;;;;;;;;15.50;65.90;;;;;;5057225;28;19920;-87
2022/09/26 00:58:13;;;;;;;;;;;15.50;65.90;;;;;;5062221;28;19912;-86
2022/09/26 01:00:39;;;;;;;;;;;15.60;66.00;;;;;;5059912;28;19943;-86
2022/09/26 01:03:05;;;;;;;;;;;15.50;65.90;;;;;;5044897;28;19948;-87
2022/09/26 01:05:31;;;;;;;;;;;15.50;65.90;;;;;;5064536;28;20380;-86
2022/09/26 01:07:57;;;;;;;;;;;15.50;65.90;;;;;;5087892;28;19916;-87
2022/09/26 01:10:25;;;;;;;;;;;15.50;65.90;;;;;;5060245;28;19916;-87
2022/09/26 01:12:51;;;;;;;;;;;15.50;65.90;;;;;;5094289;28;19951;-87
2022/09/26 01:15:17;;;;;;;;;;;15.50;66.00;;;;;;5082803;28;19913;-87
2022/09/26 01:17:43;;;;;;;;;;;15.50;66.00;;;;;;5056301;28;19991;-87
2022/09/26 01:20:21;;;;;;;;;;;15.50;66.00;;;;;;5065956;28;19912;-88
2022/09/26 01:22:56;;;;;;;;;;;15.50;66.00;;;;;;5072161;28;19920;-87
2022/09/26 01:25:40;;;;;;;;;;;15.50;66.00;;;;;;5068641;28;19913;-87
2022/09/26 01:28:29;;;;;;;;;;;15.50;66.00;;;;;;5063100;28;19920;-87
2022/09/26 01:31:12;;;;;;;;;;;15.50;66.00;;;;;;5058702;28;19986;-87
2022/09/26 01:33:38;;;;;;;;;;;15.50;66.00;;;;;;5065442;28;19916;-88
2022/09/26 01:36:06;;;;;;;;;;;15.50;66.10;;;;;;5062071;28;19913;-88
2022/09/26 01:38:32;;;;;;;;;;;15.50;66.10;;;;;;5084915;28;19916;-87
2022/09/26 01:41:13;;;;;;;;;;;15.50;66.10;;;;;;5046905;28;19908;-87
2022/09/26 01:43:41;;;;;;;;;;;15.50;66.10;;;;;;5081542;28;19928;-88
2022/09/26 01:46:14;;;;;;;;;;;15.50;66.10;;;;;;5063545;28;20006;-87
2022/09/26 01:48:47;;;;;;;;;;;15.50;66.10;;;;;;5055051;28;19954;-87
2022/09/26 01:51:20;;;;;;;;;;;15.50;66.10;;;;;;5063687;28;19939;-86
2022/09/26 01:53:47;;;;;;;;;;;15.50;66.20;;;;;;5061172;28;19912;-87
2022/09/26 01:56:17;;;;;;;;;;;15.50;66.20;;;;;;5047824;28;19971;-86
2022/09/26 01:58:49;;;;;;;;;;;15.50;66.20;;;;;;5058486;28;20007;-87
2022/09/26 02:01:17;;;;;;;;;;;15.50;66.20;;;;;;5048630;28;19913;-86
2022/09/26 02:04:00;;;;;;;;;;;15.50;66.20;;;;;;5059823;28;20455;-87
2022/09/26 02:06:36;;;;;;;;;;;15.50;66.20;;;;;;5054361;28;19913;-87
2022/09/26 02:09:10;;;;;;;;;;;15.50;66.20;;;;;;5072053;28;19913;-85
2022/09/26 02:11:39;;;;;;;;;;;15.40;66.20;;;;;;5080876;28;19919;-85
2022/09/26 02:14:12;;;;;;;;;;;15.40;66.20;;;;;;5049024;28;19913;-87
2022/09/26 02:16:40;;;;;;;;;;;15.50;66.20;;;;;;5060621;28;19920;-87
2022/09/26 02:19:12;;;;;;;;;;;15.50;66.20;;;;;;5061008;28;19909;-87
2022/09/26 02:21:39;;;;;;;;;;;15.40;66.20;;;;;;5043577;28;19951;-86
2022/09/26 02:24:05;;;;;;;;;;;15.40;66.20;;;;;;5042505;28;19920;-86
2022/09/26 02:26:32;;;;;;;;;;;15.40;66.20;;;;;;5063922;28;19917;-86
2022/09/26 02:28:59;;;;;;;;;;;15.40;66.20;;;;;;5060213;28;19917;-87
2022/09/26 02:31:28;;;;;;;;;;;15.50;66.20;;;;;;5040595;28;19958;-87
2022/09/26 02:33:54;;;;;;;;;;;15.40;66.20;;;;;;5069366;28;19919;-87
2022/09/26 02:36:23;;;;;;;;;;;15.50;66.20;;;;;;5048137;28;19943;-87
2022/09/26 02:38:49;;;;;;;;;;;15.40;66.20;;;;;;5082092;28;20356;-86
2022/09/26 02:41:43;;;;;;;;;;;15.40;66.20;;;;;;5063904;28;19920;-87
2022/09/26 02:44:16;;;;;;;;;;;15.40;66.20;;;;;;5067225;28;19940;-87
2022/09/26 02:46:51;;;;;;;;;;;15.40;66.20;;;;;;5046080;28;20001;-86
2022/09/26 02:49:35;;;;;;;;;;;15.40;66.20;;;;;;5056930;28;19913;-86
2022/09/26 02:52:06;;;;;;;;;;;15.40;66.20;;;;;;5056321;28;19912;-87
2022/09/26 02:54:45;;;;;;;;;;;15.40;66.20;;;;;;5056291;28;20044;-86
2022/09/26 02:57:14;;;;;;;;;;;15.40;66.20;;;;;;5048233;28;20380;-86
2022/09/26 02:59:52;;;;;;;;;;;15.40;66.20;;;;;;5075234;28;20199;-87
2022/09/26 03:02:26;;;;;;;;;;;15.40;66.20;;;;;;5062470;28;19932;-86
2022/09/26 03:05:11;;;;;;;;;;;15.40;66.20;;;;;;5057752;28;19938;-87
2022/09/26 03:07:52;;;;;;;;;;;15.40;66.20;;;;;;5065061;28;19916;-87
2022/09/26 03:10:18;;;;;;;;;;;15.40;66.20;;;;;;5073988;28;20011;-87
2022/09/26 03:12:43;;;;;;;;;;;15.40;66.20;;;;;;5062615;28;19920;-86
2022/09/26 03:15:10;;;;;;;;;;;15.40;66.90;;;;;;5063704;28;20376;-85
2022/09/26 03:17:36;;;;;;;;;;;15.40;66.20;;;;;;5062270;28;19912;-87
2022/09/26 03:20:10;;;;;;;;;;;15.40;66.20;;;;;;5063898;28;19912;-87
2022/09/26 03:22:38;;;;;;;;;;;15.30;66.20;;;;;;5067340;28;19920;-87
2022/09/26 03:25:06;;;;;;;;;;;15.40;66.20;;;;;;5058451;28;19920;-87
2022/09/26 03:27:33;;;;;;;;;;;15.40;66.20;;;;;;5063580;28;19912;-85
2022/09/26 03:29:59;;;;;;;;;;;15.40;66.50;;;;;;5071026;28;19908;-86
2022/09/26 03:32:27;;;;;;;;;;;15.30;66.20;;;;;;5076289;28;19923;-87
2022/09/26 03:34:55;;;;;;;;;;;15.30;66.20;;;;;;5062286;28;19908;-87
2022/09/26 03:37:20;;;;;;;;;;;15.30;66.20;;;;;;5056043;28;19920;-85
2022/09/26 03:39:46;;;;;;;;;;;15.40;66.20;;;;;;5036185;28;19916;-85
2022/09/26 03:42:19;;;;;;;;;;;15.30;66.20;;;;;;5065217;28;19928;-86
2022/09/26 03:44:45;;;;;;;;;;;15.30;66.20;;;;;;5070343;28;19983;-86
2022/09/26 03:47:11;;;;;;;;;;;15.30;66.20;;;;;;5064245;28;19913;-86
2022/09/26 03:49:42;;;;;;;;;;;15.30;66.20;;;;;;5048645;28;20269;-86
2022/09/26 03:52:10;;;;;;;;;;;15.30;66.20;;;;;;5066123;28;19951;-86
2022/09/26 03:54:36;;;;;;;;;;;15.30;66.20;;;;;;5069147;28;19935;-86
2022/09/26 03:57:02;;;;;;;;;;;15.30;66.20;;;;;;5046186;28;20372;-86
2022/09/26 03:59:27;;;;;;;;;;;15.30;66.20;;;;;;5048893;28;19923;-86
2022/09/26 04:01:53;;;;;;;;;;;15.30;66.20;;;;;;5059513;28;19981;-86
2022/09/26 04:04:18;;;;;;;;;;;15.30;66.20;;;;;;5060715;28;19916;-87
2022/09/26 04:06:44;;;;;;;;;;;15.30;66.20;;;;;;5067255;28;19916;-86
2022/09/26 04:09:10;;;;;;;;;;;15.30;66.20;;;;;;5038397;28;20357;-86
2022/09/26 04:11:37;;;;;;;;;;;15.30;66.20;;;;;;5063283;28;19921;-86
2022/09/26 04:14:04;;;;;;;;;;;15.30;66.20;;;;;;5052292;28;20292;-87
2022/09/26 04:16:32;;;;;;;;;;;15.30;66.20;;;;;;5045958;28;19917;-86
2022/09/26 04:19:05;;;;;;;;;;;15.30;66.20;;;;;;5063298;28;20003;-86
2022/09/26 04:21:34;;;;;;;;;;;15.30;66.20;;;;;;5055967;28;19959;-85
2022/09/26 04:24:00;;;;;;;;;;;15.30;66.30;;;;;;5071198;28;20027;-86
2022/09/26 04:26:27;;;;;;;;;;;15.30;66.30;;;;;;5051574;28;19923;-85
2022/09/26 04:28:54;;;;;;;;;;;15.30;66.30;;;;;;5075469;28;19963;-86
2022/09/26 04:31:20;;;;;;;;;;;15.30;66.30;;;;;;5061214;28;19919;-86
2022/09/26 04:33:55;;;;;;;;;;;15.30;66.30;;;;;;5060177;28;19912;-86
2022/09/26 04:36:22;;;;;;;;;;;15.30;66.30;;;;;;5050892;28;19916;-87
2022/09/26 04:38:48;;;;;;;;;;;15.30;66.30;;;;;;5062142;28;19912;-84
2022/09/26 04:41:16;;;;;;;;;;;15.30;66.30;;;;;;5058967;28;19963;-85
2022/09/26 04:43:42;;;;;;;;;;;15.30;66.90;;;;;;5070963;28;19916;-85
2022/09/26 04:46:12;;;;;;;;;;;15.20;66.20;;;;;;5073891;28;19923;-83
2022/09/26 04:48:39;;;;;;;;;;;15.30;66.30;;;;;;5061064;28;20422;-86
2022/09/26 04:51:15;;;;;;;;;;;15.20;66.20;;;;;;5071523;28;19928;-86
2022/09/26 04:53:41;;;;;;;;;;;15.20;66.30;;;;;;5044525;28;19913;-87
2022/09/26 04:56:20;;;;;;;;;;;15.20;66.20;;;;;;5062059;28;19926;-87
2022/09/26 04:58:46;;;;;;;;;;;15.20;66.20;;;;;;5062778;28;20350;-86
2022/09/26 05:01:14;;;;;;;;;;;15.20;66.20;;;;;;5065220;28;19908;-89
2022/09/26 05:03:55;;;;;;;;;;;15.20;66.30;;;;;;5061689;28;19946;-87
2022/09/26 05:06:20;;;;;;;;;;;15.20;66.30;;;;;;5058230;28;20327;-84
2022/09/26 05:08:47;;;;;;;;;;;15.20;66.20;;;;;;5038315;28;19921;-86
2022/09/26 05:11:16;;;;;;;;;;;15.20;66.30;;;;;;5063701;28;20011;-86
2022/09/26 05:13:42;;;;;;;;;;;15.20;66.20;;;;;;5060575;28;19918;-86
2022/09/26 05:16:09;;;;;;;;;;;15.20;66.30;;;;;;5057197;28;19962;-85
2022/09/26 05:18:38;;;;;;;;;;;15.20;66.20;;;;;;5048750;28;19919;-84
2022/09/26 05:21:04;;;;;;;;;;;15.20;66.30;;;;;;5062677;28;20614;-84
2022/09/26 05:26:18;;;;;;;;;;;15.10;66.20;;;;;;5070911;28;19913;-85
2022/09/26 05:28:45;;;;;;;;;;;15.20;66.30;;;;;;5066705;28;19973;-84
2022/09/26 05:31:11;;;;;;;;;;;15.20;66.30;;;;;;5062994;28;20357;-82
2022/09/26 05:33:37;;;;;;;;;;;15.10;66.20;;;;;;5060569;28;19920;-82
2022/09/26 05:36:04;;;;;;;;;;;15.10;66.20;;;;;;5062299;28;19922;-86
2022/09/26 05:38:29;;;;;;;;;;;15.10;66.30;;;;;;5036267;28;20020;-84
2022/09/26 05:40:55;;;;;;;;;;;15.10;66.20;;;;;;5052539;28;20114;-84
2022/09/26 05:43:26;;;;;;;;;;;15.10;66.30;;;;;;5069497;28;19924;-84
2022/09/26 05:45:57;;;;;;;;;;;15.10;66.30;;;;;;5054733;28;19912;-83
2022/09/26 05:48:25;;;;;;;;;;;15.10;66.30;;;;;;5059665;28;19915;-83
2022/09/26 05:50:50;;;;;;;;;;;15.10;66.30;;;;;;5045099;28;19955;-84
2022/09/26 05:53:16;;;;;;;;;;;15.10;66.30;;;;;;5054306;28;19916;-84
2022/09/26 05:55:41;;;;;;;;;;;15.10;66.30;;;;;;5053988;28;19916;-83
2022/09/26 05:58:30;;;;;;;;;;;15.10;66.30;;;;;;5070552;28;19919;-84
2022/09/26 06:01:15;;;;;;;;;;;15.10;66.30;;;;;;5071457;28;20253;-84
2022/09/26 06:03:42;;;;;;;;;;;15.00;66.30;;;;;;5057642;28;19927;-84
2022/09/26 06:06:14;;;;;;;;;;;15.00;66.30;;;;;;5041888;28;19990;-85
2022/09/26 06:08:40;;;;;;;;;;;15.10;66.30;;;;;;5047888;28;19913;-84
2022/09/26 06:11:29;;;;;;;;;;;15.10;66.30;;;;;;5043811;28;19908;-84
2022/09/26 06:13:58;;;;;;;;;;;15.10;66.30;;;;;;5072394;28;19917;-85
2022/09/26 06:16:23;;;;;;;;;;;15.10;66.30;;;;;;5053383;28;19913;-83
2022/09/26 06:18:51;;;;;;;;;;;15.00;66.40;;;;;;5043473;28;20379;-84
2022/09/26 06:21:18;;;;;;;;;;;15.10;66.30;;;;;;5058576;28;19916;-85
2022/09/26 06:23:46;;;;;;;;;;;15.00;66.30;;;;;;5051593;28;19929;-85
2022/09/26 06:26:23;;;;;;;;;;;15.00;66.30;;;;;;5038129;28;19946;-85
2022/09/26 06:28:58;;;;;;;;;;;15.10;66.40;;;;;;5054861;28;20262;-85
2022/09/26 06:31:24;;;;;;;;;;;15.00;66.30;;;;;;5057038;28;19977;-85
2022/09/26 06:34:08;;;;;;;;;;;15.00;66.30;;;;;;5070097;28;19912;-84
2022/09/26 06:37:00;;;;;;;;;;;15.00;66.30;;;;;;5053323;28;19924;-85
2022/09/26 06:39:34;;;;;;;;;;;15.00;66.40;;;;;;5051782;28;19916;-85
2022/09/26 06:42:04;;;;;;;;;;;15.00;66.30;;;;;;5052326;28;19920;-86
2022/09/26 06:45:08;;;;;;;;;;;15.00;66.40;;;;;;4987308;28;20009;-85
2022/09/26 06:47:54;;;;;;;;;;;15.00;66.30;;;;;;4989801;28;20004;-85
2022/09/26 06:50:34;;;;;;;;;;;15.00;66.40;;;;;;5021731;28;19916;-85
2022/09/26 06:53:03;;;;;;;;;;;15.00;66.40;;;;;;5052911;28;19916;-85
2022/09/26 06:55:29;;;;;;;;;;;15.00;66.40;;;;;;5052186;28;19935;-85
2022/09/26 06:57:54;;;;;;;;;;;15.00;66.40;;;;;;5055225;28;20337;-84
2022/09/26 07:00:24;;;;;;;;;;;15.00;66.40;;;;;;5038557;28;19912;-86
2022/09/26 07:03:14;;;;;;;;;;;15.00;66.40;;;;;;5038282;28;19920;-85
2022/09/26 07:05:55;;;;;;;;;;;15.00;66.40;;;;;;5057033;28;19946;-85
2022/09/26 07:08:21;;;;;;;;;;;15.00;66.40;;;;;;5072450;28;19965;-84
2022/09/26 07:10:47;;;;;;;;;;;15.00;66.40;;;;;;5065433;28;19913;-86
2022/09/26 07:13:21;;;;;;;;;;;15.00;66.40;;;;;;5050092;28;20354;-85
2022/09/26 07:15:47;;;;;;;;;;;15.00;66.40;;;;;;5050178;28;19969;-85
2022/09/26 07:18:28;;;;;;;;;;;15.00;66.40;;;;;;5056519;28;19912;-84
2022/09/26 07:21:12;;;;;;;;;;;15.00;66.40;;;;;;5070564;28;19916;-84
2022/09/26 07:24:02;;;;;;;;;;;15.00;66.40;;;;;;5057200;28;20459;-84
2022/09/26 07:26:27;;;;;;;;;;;15.00;66.40;;;;;;5059276;28;20007;-85
2022/09/26 07:28:54;;;;;;;;;;;15.00;66.40;;;;;;5037145;28;20020;-86
2022/09/26 07:31:22;;;;;;;;;;;15.00;67.00;;;;;;5056871;28;20007;-85
2022/09/26 07:34:14;;;;;;;;;;;15.00;66.40;;;;;;5071881;28;19924;-85
2022/09/26 07:36:39;;;;;;;;;;;15.00;66.40;;;;;;5040647;28;20032;-86
2022/09/26 07:39:06;;;;;;;;;;;15.10;66.50;;;;;;5054665;28;19970;-85
2022/09/26 07:41:32;;;;;;;;;;;15.00;66.40;;;;;;5065204;28;20011;-84
2022/09/26 07:43:58;;;;;;;;;;;15.00;66.40;;;;;;5056480;28;20365;-84
2022/09/26 07:52:16;;;;;;;;;;;15.00;66.40;;;;;;5074897;28;19979;-84
2022/09/26 07:54:52;;;;;;;;;;;15.00;66.40;;;;;;5051948;28;20261;-85
2022/09/26 07:57:45;;;;;;;;;;;15.10;66.50;;;;;;5058918;28;19974;-85
2022/09/26 08:00:21;;;;;;;;;;;15.00;66.40;;;;;;5059208;28;19912;-86
2022/09/26 08:03:27;;;;;;;;;;;15.00;66.40;;;;;;4959774;28;20016;-85
2022/09/26 08:05:58;;;;;;;;;;;15.10;66.50;;;;;;4939971;28;20354;-85
2022/09/26 08:08:24;;;;;;;;;;;15.10;66.50;;;;;;4997768;28;19991;-86
2022/09/26 08:10:58;;;;;;;;;;;15.10;66.50;;;;;;5063118;28;19916;-85
2022/09/26 08:14:00;;;;;;;;;;;15.10;66.50;;;;;;5006197;28;19921;-86
2022/09/26 08:16:43;;;;;;;;;;;15.10;66.50;;;;;;5053844;28;19924;-86
2022/09/26 08:19:11;;;;;;;;;;;15.10;66.50;;;;;;5049520;28;19916;-85
2022/09/26 08:21:38;;;;;;;;;;;15.10;66.50;;;;;;5067661;28;19923;-86
2022/09/26 08:24:04;;;;;;;;;;;15.10;67.20;;;;;;5043901;28;19931;-85
2022/09/26 08:26:30;;;;;;;;;;;15.10;66.50;;;;;;5062230;28;20288;-86
2022/09/26 08:29:11;;;;;;;;;;;15.10;66.50;;;;;;5042488;28;19925;-85
2022/09/26 08:31:37;;;;;;;;;;;15.10;66.50;;;;;;5050698;28;19923;-84
2022/09/26 08:34:04;;;;;;;;;;;15.10;66.50;;;;;;5077404;28;19923;-83
2022/09/26 08:36:31;;;;;;;;;;;15.10;66.50;;;;;;5045346;28;19917;-85
2022/09/26 08:38:58;;;;;;;;;;;15.20;66.50;;;;;;5067686;28;19951;-86
2022/09/26 08:41:48;;;;;;;;;;;15.20;66.50;;;;;;5066298;28;19920;-84
2022/09/26 08:44:34;;;;;;;;;;;15.20;66.60;;;;;;5070048;28;20280;-84
2022/09/26 08:47:29;;;;;;;;;;;15.20;66.60;;;;;;5046498;28;19924;-86
2022/09/26 08:50:19;;;;;;;;;;;15.20;66.60;;;;;;5086674;28;19981;-84
2022/09/26 08:53:04;;;;;;;;;;;15.20;66.60;;;;;;5070951;28;19920;-86
2022/09/26 08:55:36;;;;;;;;;;;15.20;66.60;;;;;;5069972;28;19916;-84
2022/09/26 08:58:01;;;;;;;;;;;15.20;66.50;;;;;;5055048;28;19916;-84
2022/09/26 09:00:30;;;;;;;;;;;15.20;67.20;;;;;;5079847;28;20390;-83
2022/09/26 09:03:03;;;;;;;;;;;15.20;66.60;;;;;;5084468;28;20353;-86
2022/09/26 09:05:31;;;;;;;;;;;15.20;66.50;;;;;;5066840;28;20288;-84
2022/09/26 09:08:00;;;;;;;;;;;15.20;66.50;;;;;;5065384;28;20280;-85
2022/09/26 09:10:32;;;;;;;;;;;15.20;66.50;;;;;;5062005;28;20379;-84
2022/09/26 09:13:33;;;;;;;;;;;15.30;66.60;;;;;;5062965;28;19912;-84
2022/09/26 09:16:28;;;;;;;;;;;15.30;66.60;;;;;;5044405;28;19912;-84
2022/09/26 09:19:17;;;;;;;;;;;15.30;66.60;;;;;;5084555;28;19912;-84
2022/09/26 09:22:24;;;;;;;;;;;15.30;66.60;;;;;;5078061;28;19930;-84
2022/09/26 09:25:16;;;;;;;;;;;15.30;66.60;;;;;;5063488;28;19917;-87
2022/09/26 09:27:49;;;;;;;;;;;15.30;66.60;;;;;;5065634;28;19912;-85
2022/09/26 09:30:45;;;;;;;;;;;15.30;66.60;;;;;;5049793;28;19920;-85
2022/09/26 09:33:36;;;;;;;;;;;15.30;66.60;;;;;;5037472;28;19913;-83
2022/09/26 09:36:30;;;;;;;;;;;15.30;66.60;;;;;;5069741;28;19913;-85
2022/09/26 09:39:27;;;;;;;;;;;15.30;66.60;;;;;;5067686;28;19919;-85
2022/09/26 09:42:11;;;;;;;;;;;15.30;66.60;;;;;;5079139;28;19916;-86
2022/09/26 09:44:43;;;;;;;;;;;15.30;66.60;;;;;;5082736;28;19924;-86
2022/09/26 09:47:13;;;;;;;;;;;15.40;66.60;;;;;;5058544;28;20002;-83
2022/09/26 09:49:40;;;;;;;;;;;15.40;66.60;;;;;;5080924;28;19916;-85
2022/09/26 09:52:25;;;;;;;;;;;15.40;66.60;;;;;;5088085;28;20275;-87
2022/09/26 09:54:54;;;;;;;;;;;15.40;66.60;;;;;;5063670;28;19913;-84
2022/09/26 09:57:38;;;;;;;;;;;15.40;66.60;;;;;;5059174;28;20364;-87
2022/09/26 10:00:10;;;;;;;;;;;15.40;66.60;;;;;;5057020;28;19916;-85
2022/09/26 10:03:00;;;;;;;;;;;15.50;66.70;;;;;;5081461;28;19916;-83
2022/09/26 10:05:46;;;;;;;;;;;15.50;66.70;;;;;;5066690;28;19916;-85
2022/09/26 10:08:30;;;;;;;;;;;15.50;66.70;;;;;;5058688;28;19920;-87
2022/09/26 10:11:07;;;;;;;;;;;15.50;66.70;;;;;;5076275;28;19913;-83
2022/09/26 10:13:53;;;;;;;;;;;15.50;66.70;;;;;;5080005;28;19919;-86
2022/09/26 10:17:07;;;;;;;;;;;15.60;66.70;;;;;;5081571;28;19960;-86
2022/09/26 10:19:35;;;;;;;;;;;15.60;66.80;;;;;;5071146;28;20011;-85
2022/09/26 10:22:01;;;;;;;;;;;15.50;66.70;;;;;;5062398;28;19973;-85
2022/09/26 10:24:39;;;;;;;;;;;15.60;66.70;;;;;;5063870;28;19985;-85
2022/09/26 10:27:17;;;;;;;;;;;15.60;66.70;;;;;;5071146;28;19944;-87
2022/09/26 10:29:44;;;;;;;;;;;15.60;66.80;;;;;;5071609;28;19920;-85
2022/09/26 10:32:10;;;;;;;;;;;15.70;66.80;;;;;;5054391;28;19920;-86
2022/09/26 10:34:39;;;;;;;;;;;15.60;66.70;;;;;;5054710;28;20694;-86
2022/09/26 10:37:19;;;;;;;;;;;15.60;66.70;;;;;;5039132;28;20012;-87
2022/09/26 10:42:36;;;;;;;;;;;15.70;66.80;;;;;;5063757;28;20299;-86
2022/09/26 10:45:11;;;;;;;;;;;15.70;66.80;;;;;;5079115;28;20223;-85
2022/09/26 10:48:00;;;;;;;;;;;15.70;66.80;;;;;;5019143;28;20003;-87
2022/09/26 10:51:00;;;;;;;;;;;15.70;66.80;;;;;;5067131;28;19916;-88
2022/09/26 10:53:51;;;;;;;;;;;15.70;66.80;;;;;;5057360;28;19916;-88
2022/09/26 10:56:25;;;;;;;;;;;15.70;66.80;;;;;;5077954;28;19912;-88
2022/09/26 10:58:56;;;;;;;;;;;15.70;66.80;;;;;;5078971;28;19912;-87
2022/09/26 11:01:25;;;;;;;;;;;15.70;66.80;;;;;;5081568;28;19951;-87
2022/09/26 11:03:51;;;;;;;;;;;15.80;66.80;;;;;;5071273;28;19932;-87
2022/09/26 11:06:25;;;;;;;;;;;15.80;66.80;;;;;;5073932;28;20023;-89
2022/09/26 11:08:56;;;;;;;;;;;15.80;66.90;;;;;;5062447;28;19913;-86
2022/09/26 11:12:18;;;;;;;;;;;15.80;66.80;;;;;;5072231;28;19916;-86
2022/09/26 11:14:44;;;;;;;;;;;15.80;66.80;;;;;;5064000;28;19928;-88
2022/09/26 11:17:10;;;;;;;;;;;15.80;66.90;;;;;;5050642;28;19917;-88
2022/09/26 11:19:43;;;;;;;;;;;15.80;66.90;;;;;;5068366;28;19912;-88
2022/09/26 11:22:22;;;;;;;;;;;15.90;66.90;;;;;;5070989;28;20001;-87
2022/09/26 11:25:05;;;;;;;;;;;15.80;66.90;;;;;;5056495;28;19916;-88
2022/09/26 11:27:37;;;;;;;;;;;15.80;66.90;;;;;;5045359;28;19919;-88
2022/09/26 11:30:09;;;;;;;;;;;15.90;66.90;;;;;;5058771;28;19938;-87
2022/09/26 11:32:43;;;;;;;;;;;15.90;67.00;;;;;;5076511;28;19917;-90
2022/09/26 11:35:52;;;;;;;;;;;15.90;66.90;;;;;;5052744;28;19912;-90
2022/09/26 11:38:45;;;;;;;;;;;15.90;66.90;;;;;;5085006;28;20368;-89
2022/09/26 11:41:36;;;;;;;;;;;15.90;66.90;;;;;;5047145;28;19913;-84
2022/09/26 11:44:05;;;;;;;;;;;15.90;66.90;;;;;;5074699;28;19922;-87
2022/09/26 11:47:00;;;;;;;;;;;15.90;66.90;;;;;;5042327;28;19917;-86
2022/09/26 11:50:05;;;;;;;;;;;15.90;67.00;;;;;;5059458;28;19913;-88
2022/09/26 11:53:02;;;;;;;;;;;15.90;67.00;;;;;;5065113;28;20001;-87
2022/09/26 11:55:49;;;;;;;;;;;15.90;67.00;;;;;;5062624;28;19912;-87
2022/09/26 11:58:22;;;;;;;;;;;15.90;67.00;;;;;;5079818;28;20184;-88
2022/09/26 12:00:48;;;;;;;;;;;15.90;67.00;;;;;;5070158;28;20340;-88
2022/09/26 12:03:18;;;;;;;;;;;15.90;67.00;;;;;;5079805;28;19920;-88
2022/09/26 12:05:53;;;;;;;;;;;15.90;67.00;;;;;;5075281;28;20013;-88
2022/09/26 12:08:34;;;;;;;;;;;16.00;67.10;;;;;;5063235;28;20269;-88
2022/09/26 12:11:06;;;;;;;;;;;16.00;67.10;;;;;;5052785;28;20096;-89
2022/09/26 12:13:33;;;;;;;;;;;16.00;67.10;;;;;;5056889;28;19935;-89
2022/09/26 12:15:59;;;;;;;;;;;16.00;67.10;;;;;;5067056;28;19979;-86
2022/09/26 12:18:52;;;;;;;;;;;16.00;67.10;;;;;;5053727;28;20007;-87
2022/09/26 12:21:20;;;;;;;;;;;16.00;67.10;;;;;;5062779;28;19912;-87
2022/09/26 12:23:51;;;;;;;;;;;16.00;67.10;;;;;;5066067;28;19960;-87
2022/09/26 12:26:29;;;;;;;;;;;16.00;67.10;;;;;;5061373;28;19999;-87
2022/09/26 12:28:58;;;;;;;;;;;16.00;67.10;;;;;;5059667;28;19978;-86
2022/09/26 12:31:34;;;;;;;;;;;16.00;67.10;;;;;;5051719;28;20016;-87
2022/09/26 12:34:04;;;;;;;;;;;16.00;67.10;;;;;;5072310;28;19916;-87
2022/09/26 12:36:39;;;;;;;;;;;16.00;67.10;;;;;;4162179;28;10000698;-87
2022/09/26 12:39:14;;;;;;;;;;;16.00;67.10;;;;;;5028375;28;19935;-86
2022/09/26 12:41:42;;;;;;;;;;;16.00;67.10;;;;;;5033581;28;19921;-86
2022/09/26 12:44:31;;;;;;;;;;;16.00;67.10;;;;;;5019135;28;19928;-87
2022/09/26 12:47:10;;;;;;;;;;;16.00;67.10;;;;;;5012449;28;20000;-87
2022/09/26 12:49:36;;;;;;;;;;;16.00;67.10;;;;;;5054400;28;19980;-87
2022/09/26 12:52:20;;;;;;;;;;;16.00;67.10;;;;;;5043225;28;20448;-88
2022/09/26 12:54:55;;;;;;;;;;;16.00;67.10;;;;;;5038719;28;19913;-88
2022/09/26 12:57:37;;;;;;;;;;;16.00;67.10;;;;;;5042104;28;20377;-89
2022/09/26 13:00:09;;;;;;;;;;;16.00;67.10;;;;;;5046676;28;19913;-88
2022/09/26 13:02:41;;;;;;;;;;;16.00;67.10;;;;;;5016203;28;20281;-87
2022/09/26 13:05:26;;;;;;;;;;;16.00;67.20;;;;;;5036633;28;20078;-89
2022/09/26 13:08:04;;;;;;;;;;;16.00;67.20;;;;;;5047987;28;19963;-89
2022/09/26 13:10:39;;;;;;;;;;;16.00;67.20;;;;;;5039615;28;19913;-87
2022/09/26 13:13:23;;;;;;;;;;;16.00;67.20;;;;;;5022834;28;20007;-88
2022/09/26 13:16:18;;;;;;;;;;;16.00;67.20;;;;;;5037024;28;19913;-89
2022/09/26 13:18:47;;;;;;;;;;;16.00;67.20;;;;;;4944066;28;19925;-88
2022/09/26 13:21:14;;;;;;;;;;;16.00;67.20;;;;;;5028540;28;19928;-87
2022/09/26 13:23:52;;;;;;;;;;;16.10;67.30;;;;;;5015198;28;19947;-88
2022/09/26 13:26:34;;;;;;;;;;;16.10;67.30;;;;;;5033188;28;19913;-88
2022/09/26 13:29:07;;;;;;;;;;;16.10;67.20;;;;;;5023563;28;19957;-88
2022/09/26 13:31:39;;;;;;;;;;;16.10;67.30;;;;;;5026772;28;19919;-88
2022/09/26 13:34:11;;;;;;;;;;;16.10;67.30;;;;;;5024051;28;19987;-90
2022/09/26 13:36:40;;;;;;;;;;;16.10;67.30;;;;;;5036489;28;19912;-88
2022/09/26 13:39:15;;;;;;;;;;;16.10;67.30;;;;;;5001822;28;19941;-88
2022/09/26 13:42:10;;;;;;;;;;;16.10;67.30;;;;;;5032598;28;20000;-89
2022/09/26 13:44:39;;;;;;;;;;;16.10;67.20;;;;;;5004418;28;19925;-88
2022/09/26 13:47:18;;;;;;;;;;;16.10;67.20;;;;;;5033389;28;19917;-87
2022/09/26 13:49:53;;;;;;;;;;;16.10;67.20;;;;;;5032185;28;19917;-88
2022/09/26 13:52:19;;;;;;;;;;;16.10;67.30;;;;;;5029840;28;19956;-87
2022/09/26 13:55:00;;;;;;;;;;;16.10;67.20;;;;;;5027247;28;19956;-88
2022/09/26 13:57:37;;;;;;;;;;;16.10;67.20;;;;;;5035042;28;20008;-89
2022/09/26 14:00:15;;;;;;;;;;;16.10;67.30;;;;;;5035159;28;19913;-88
2022/09/26 14:02:41;;;;;;;;;;;16.10;67.30;;;;;;5017176;28;19944;-89
2022/09/26 14:05:10;;;;;;;;;;;16.10;67.30;;;;;;5015294;28;20373;-88
2022/09/26 14:10:26;;;;;;;;;;;16.10;67.30;;;;;;5033938;28;19913;-90
2022/09/26 14:13:05;;;;;;;;;;;16.10;67.30;;;;;;5021973;28;19919;-89
2022/09/26 14:15:49;;;;;;;;;;;16.10;67.30;;;;;;5017099;28;20403;-90
2022/09/26 14:18:31;;;;;;;;;;;16.10;67.30;;;;;;5030991;28;20861;-89
2022/09/26 14:21:00;;;;;;;;;;;16.10;67.30;;;;;;5031776;28;19913;-90
2022/09/26 14:23:37;;;;;;;;;;;16.10;67.30;;;;;;5013346;28;19955;-90
2022/09/26 14:26:09;;;;;;;;;;;16.10;67.30;;;;;;5016496;28;19917;-87
2022/09/26 14:28:35;;;;;;;;;;;16.10;67.30;;;;;;5023211;28;19920;-91
2022/09/26 14:31:22;;;;;;;;;;;16.10;67.30;;;;;;5023628;28;19909;-89
2022/09/26 14:33:49;;;;;;;;;;;16.10;67.30;;;;;;5035155;28;19963;-90
2022/09/26 14:36:35;;;;;;;;;;;16.10;67.30;;;;;;5035951;28;19913;-90
2022/09/26 14:39:02;;;;;;;;;;;16.10;67.30;;;;;;5019295;28;19981;-90
2022/09/26 14:41:30;;;;;;;;;;;16.10;67.30;;;;;;5030715;28;19905;-91
2022/09/26 14:44:03;;;;;;;;;;;16.10;67.30;;;;;;5019495;28;19921;-90
2022/09/26 14:46:31;;;;;;;;;;;16.10;67.30;;;;;;5019254;28;19949;-87
2022/09/26 14:49:01;;;;;;;;;;;16.10;67.30;;;;;;5006045;28;19914;-90
2022/09/26 14:51:29;;;;;;;;;;;16.20;67.30;;;;;;5028575;28;19913;-89
2022/09/26 14:53:59;;;;;;;;;;;16.20;67.30;;;;;;5016164;28;19920;-86
2022/09/26 14:56:42;;;;;;;;;;;16.20;67.30;;;;;;5018411;28;19921;-86
2022/09/26 14:59:23;;;;;;;;;;;16.20;67.30;;;;;;5030613;28;19921;-87
2022/09/26 15:02:09;;;;;;;;;;;16.10;67.30;;;;;;5023935;28;19917;-88
2022/09/26 15:04:35;;;;;;;;;;;16.20;67.30;;;;;;5015932;28;19925;-87
2022/09/26 15:07:01;;;;;;;;;;;16.20;67.30;;;;;;5028576;28;19996;-89
2022/09/26 15:09:47;;;;;;;;;;;16.20;67.30;;;;;;5016870;28;19913;-88